createdAt,value
2017-10-28T00:00:01.722Z,26.20
2017-10-28T00:02:32.998Z,26.30
2017-10-28T00:05:03.543Z,26.30
2017-10-28T00:07:34.037Z,26.30
2017-10-28T00:10:05.331Z,26.40
2017-10-28T00:12:36.035Z,26.40
2017-10-28T00:15:06.552Z,26.40
2017-10-28T00:17:36.997Z,26.40
2017-10-28T00:20:07.437Z,26.50
2017-10-28T00:22:37.942Z,26.60
2017-10-28T00:25:08.726Z,26.60
2017-10-28T00:27:39.755Z,26.70
2017-10-28T00:30:16.070Z,26.80
2017-10-28T00:32:52.666Z,27.00
2017-10-28T00:35:28.277Z,26.90
2017-10-28T00:38:00.474Z,27.10
2017-10-28T00:40:31.844Z,27.10
2017-10-28T00:43:02.703Z,27.10
2017-10-28T00:45:33.952Z,27.20
2017-10-28T00:48:04.462Z,27.20
2017-10-28T00:50:34.905Z,27.10
2017-10-28T00:53:05.364Z,27.10
2017-10-28T00:55:37.095Z,27.10
2017-10-28T00:58:07.604Z,27.10
2017-10-28T01:00:39.565Z,27.20
2017-10-28T01:03:11.145Z,27.20
2017-10-28T01:05:42.785Z,27.20
2017-10-28T01:08:13.367Z,27.30
2017-10-28T01:10:43.872Z,27.30
2017-10-28T01:13:15.432Z,27.50
2017-10-28T01:15:52.101Z,27.60
2017-10-28T01:18:23.383Z,27.70
2017-10-28T01:20:53.848Z,27.70
2017-10-28T01:23:24.312Z,27.80
2017-10-28T01:25:55.548Z,28.00
2017-10-28T01:28:26.694Z,28.00
2017-10-28T01:30:57.933Z,28.10
2017-10-28T01:33:30.143Z,28.10
2017-10-28T01:36:00.617Z,28.10
2017-10-28T01:38:31.096Z,28.20
2017-10-28T01:41:01.483Z,28.30
2017-10-28T01:43:33.873Z,28.50
2017-10-28T01:46:05.254Z,28.50
2017-10-28T01:48:35.806Z,28.60
2017-10-28T01:51:06.311Z,28.60
2017-10-28T01:53:36.820Z,28.70
2017-10-28T01:56:07.490Z,28.80
2017-10-28T01:58:37.913Z,28.80
2017-10-28T02:01:08.716Z,28.80
2017-10-28T02:03:39.137Z,28.70
2017-10-28T02:06:09.577Z,28.70
2017-10-28T02:08:40.046Z,28.60
2017-10-28T02:11:10.578Z,28.60
2017-10-28T02:13:42.132Z,28.60
2017-10-28T02:16:12.603Z,28.60
2017-10-28T02:18:43.089Z,28.50
2017-10-28T02:21:13.542Z,28.50
2017-10-28T02:23:44.025Z,28.40
2017-10-28T02:26:14.872Z,28.40
2017-10-28T02:28:45.390Z,28.40
2017-10-28T02:31:17.175Z,28.40
2017-10-28T02:33:48.478Z,28.40
2017-10-28T02:36:18.950Z,28.40
2017-10-28T02:38:51.005Z,28.50
2017-10-28T02:41:21.577Z,28.50
2017-10-28T02:43:52.722Z,28.60
2017-10-28T02:46:23.207Z,28.60
2017-10-28T02:48:53.796Z,28.70
2017-10-28T02:51:24.247Z,28.70
2017-10-28T02:53:54.633Z,28.80
2017-10-28T02:56:25.417Z,28.80
2017-10-28T02:58:55.918Z,28.90
2017-10-28T03:01:26.808Z,29.10
2017-10-28T03:03:58.062Z,29.20
2017-10-28T03:06:29.547Z,29.30
2017-10-28T03:08:59.991Z,29.30
2017-10-28T03:11:30.403Z,29.40
2017-10-28T03:14:01.222Z,29.50
2017-10-28T03:16:31.637Z,29.60
2017-10-28T03:19:02.065Z,29.70
2017-10-28T03:21:32.549Z,29.70
2017-10-28T03:24:03.006Z,29.80
2017-10-28T03:26:34.586Z,29.80
2017-10-28T03:29:05.118Z,29.80
2017-10-28T03:31:35.891Z,29.90
2017-10-28T03:34:06.417Z,30.00
2017-10-28T03:36:36.847Z,30.10
2017-10-28T03:39:07.497Z,30.10
2017-10-28T03:41:38.757Z,30.20
2017-10-28T03:44:10.349Z,30.30
2017-10-28T03:46:41.580Z,30.30
2017-10-28T03:49:12.072Z,30.30
2017-10-28T03:51:43.362Z,30.40
2017-10-28T03:54:13.835Z,30.40
2017-10-28T03:56:44.284Z,30.40
2017-10-28T03:59:15.468Z,30.40
2017-10-28T04:01:46.140Z,30.40
2017-10-28T04:04:16.575Z,30.40
2017-10-28T04:06:47.121Z,30.50
2017-10-28T04:09:17.574Z,30.50
2017-10-28T04:11:48.076Z,30.50
2017-10-28T04:14:20.266Z,30.70
2017-10-28T04:16:50.822Z,30.60
2017-10-28T04:19:21.263Z,30.70
2017-10-28T04:21:51.706Z,30.90
2017-10-28T04:24:22.082Z,30.90
2017-10-28T04:26:52.592Z,30.90
2017-10-28T04:29:23.036Z,31.00
2017-10-28T04:31:54.726Z,31.00
2017-10-28T04:34:25.297Z,30.90
2017-10-28T04:36:56.519Z,30.90
2017-10-28T04:39:26.960Z,30.90
2017-10-28T04:41:58.156Z,30.80
2017-10-28T04:44:29.104Z,30.70
2017-10-28T04:46:59.540Z,30.70
2017-10-28T04:49:30.396Z,30.60
2017-10-28T04:52:01.660Z,30.40
2017-10-28T04:54:33.003Z,30.30
2017-10-28T04:57:04.271Z,30.20
2017-10-28T04:59:34.728Z,30.20
2017-10-28T05:02:05.513Z,30.10
2017-10-28T05:04:36.775Z,30.00
2017-10-28T05:07:07.262Z,30.00
2017-10-28T05:09:37.713Z,29.90
2017-10-28T05:12:08.964Z,29.80
2017-10-28T05:14:40.677Z,29.80
2017-10-28T05:17:11.268Z,29.80
2017-10-28T05:19:42.096Z,29.70
2017-10-28T05:22:12.540Z,29.70
2017-10-28T05:24:43.013Z,29.70
2017-10-28T05:27:13.468Z,29.70
2017-10-28T05:29:44.647Z,29.60
2017-10-28T05:32:15.463Z,29.60
2017-10-28T05:34:45.889Z,29.60
2017-10-28T05:37:16.389Z,29.60
2017-10-28T05:39:47.574Z,29.60
2017-10-28T05:42:18.061Z,29.60
2017-10-28T05:44:49.769Z,29.60
2017-10-28T05:47:20.196Z,29.60
2017-10-28T05:49:51.680Z,29.60
2017-10-28T05:52:22.153Z,29.60
2017-10-28T05:54:52.682Z,29.60
2017-10-28T05:57:23.180Z,29.60
2017-10-28T05:59:54.329Z,29.60
2017-10-28T06:02:25.908Z,29.60
2017-10-28T06:04:56.413Z,29.60
2017-10-28T06:07:27.626Z,29.70
2017-10-28T06:09:58.110Z,29.70
2017-10-28T06:12:28.531Z,29.80
2017-10-28T06:14:59.488Z,29.90
2017-10-28T06:17:30.393Z,30.00
2017-10-28T06:20:02.034Z,30.30
2017-10-28T06:22:33.319Z,30.40
2017-10-28T06:25:03.805Z,30.40
2017-10-28T06:27:35.059Z,30.70
2017-10-28T06:30:06.814Z,30.90
2017-10-28T06:32:38.415Z,30.80
2017-10-28T06:35:09.112Z,31.00
2017-10-28T06:37:40.667Z,31.20
2017-10-28T06:40:11.929Z,31.30
2017-10-28T06:42:42.351Z,31.30
2017-10-28T06:45:12.797Z,31.30
2017-10-28T06:47:43.206Z,31.40
2017-10-28T06:50:13.910Z,31.50
2017-10-28T06:52:45.135Z,31.60
2017-10-28T06:55:15.592Z,31.60
2017-10-28T06:57:46.793Z,31.60
2017-10-28T07:00:17.239Z,31.60
2017-10-28T07:02:48.111Z,31.70
2017-10-28T07:05:19.329Z,31.70
2017-10-28T07:07:49.722Z,31.70
2017-10-28T07:10:20.232Z,31.70
2017-10-28T07:12:50.738Z,31.70
2017-10-28T07:15:23.143Z,31.90
2017-10-28T07:17:53.630Z,31.80
2017-10-28T07:20:25.320Z,32.00
2017-10-28T07:22:55.841Z,31.90
2017-10-28T07:25:26.256Z,32.00
2017-10-28T07:27:56.732Z,32.10
2017-10-28T07:30:27.163Z,32.10
2017-10-28T07:32:58.111Z,32.10
2017-10-28T07:35:28.476Z,32.10
2017-10-28T07:37:58.910Z,32.10
2017-10-28T07:40:29.337Z,32.10
2017-10-28T07:42:59.818Z,32.00
2017-10-28T07:45:30.326Z,31.90
2017-10-28T07:48:00.847Z,31.80
2017-10-28T07:50:31.752Z,31.80
2017-10-28T07:53:02.300Z,31.70
2017-10-28T07:55:32.736Z,31.70
2017-10-28T07:58:03.223Z,31.60
2017-10-28T08:00:34.594Z,31.40
2017-10-28T08:03:05.225Z,31.40
2017-10-28T08:05:35.741Z,31.40
2017-10-28T08:08:06.736Z,31.30
2017-10-28T08:10:37.248Z,31.30
2017-10-28T08:13:07.724Z,31.30
2017-10-28T08:15:38.933Z,31.10
2017-10-28T08:18:09.435Z,31.10
2017-10-28T08:20:40.377Z,31.00
2017-10-28T08:23:11.928Z,30.80
2017-10-28T08:25:42.393Z,30.70
2017-10-28T08:28:12.876Z,30.40
2017-10-28T08:30:43.409Z,30.20
2017-10-28T08:33:14.373Z,30.20
2017-10-28T08:35:44.801Z,30.10
2017-10-28T08:38:17.953Z,30.00
2017-10-28T08:40:48.349Z,29.90
2017-10-28T08:43:19.739Z,29.80
2017-10-28T08:45:50.198Z,29.80
2017-10-28T08:48:20.797Z,29.80
2017-10-28T08:50:51.440Z,29.80
2017-10-28T08:53:21.960Z,29.70
2017-10-28T08:55:52.453Z,29.70
2017-10-28T08:58:23.597Z,29.70
2017-10-28T09:00:54.789Z,29.60
2017-10-28T09:03:25.657Z,29.60
2017-10-28T09:05:56.068Z,29.60
2017-10-28T09:08:26.799Z,29.50
2017-10-28T09:10:57.278Z,29.40
2017-10-28T09:13:27.843Z,29.40
2017-10-28T09:15:58.283Z,29.40
2017-10-28T09:18:28.673Z,29.30
2017-10-28T09:20:59.521Z,29.20
2017-10-28T09:23:29.965Z,29.20
2017-10-28T09:26:00.495Z,29.20
2017-10-28T09:28:30.985Z,29.20
2017-10-28T09:31:01.513Z,29.10
2017-10-28T09:33:31.899Z,29.00
2017-10-28T09:36:02.382Z,29.00
2017-10-28T09:38:34.097Z,29.00
2017-10-28T09:41:05.275Z,28.90
2017-10-28T09:43:35.727Z,28.90
2017-10-28T09:46:06.231Z,28.90
2017-10-28T09:48:36.800Z,28.80
2017-10-28T09:51:07.539Z,28.80
2017-10-28T09:53:37.991Z,28.80
2017-10-28T09:56:09.486Z,28.70
2017-10-28T09:58:39.967Z,28.70
2017-10-28T10:01:11.249Z,28.70
2017-10-28T10:03:41.791Z,28.70
2017-10-28T10:06:12.252Z,28.70
2017-10-28T10:08:42.989Z,28.70
2017-10-28T10:11:13.455Z,28.80
2017-10-28T10:13:43.918Z,28.80
2017-10-28T10:16:14.468Z,28.80
2017-10-28T10:18:44.950Z,28.80
2017-10-28T10:21:15.542Z,28.80
2017-10-28T10:23:46.750Z,28.70
2017-10-28T10:26:17.592Z,28.70
2017-10-28T10:28:48.055Z,28.70
2017-10-28T10:31:19.285Z,28.60
2017-10-28T10:33:49.837Z,28.60
2017-10-28T10:36:21.084Z,28.60
2017-10-28T10:38:52.837Z,28.60
2017-10-28T10:41:24.032Z,28.60
2017-10-28T10:43:54.488Z,28.60
2017-10-28T10:46:24.937Z,28.60
2017-10-28T10:48:56.155Z,28.60
2017-10-28T10:51:26.942Z,28.60
2017-10-28T10:53:57.438Z,28.60
2017-10-28T10:56:29.921Z,28.60
2017-10-28T10:59:01.191Z,28.50
2017-10-28T11:01:31.744Z,28.50
2017-10-28T11:04:02.272Z,28.50
2017-10-28T11:06:32.708Z,28.50
2017-10-28T11:09:03.315Z,28.50
2017-10-28T11:11:34.520Z,28.40
2017-10-28T11:14:05.796Z,28.30
2017-10-28T11:16:36.259Z,28.30
2017-10-28T11:19:06.780Z,28.30
2017-10-28T11:21:37.701Z,28.20
2017-10-28T11:24:08.193Z,28.20
2017-10-28T11:26:40.128Z,28.10
2017-10-28T11:29:11.432Z,28.00
2017-10-28T11:31:41.928Z,28.00
2017-10-28T11:34:13.189Z,28.00
2017-10-28T11:36:44.402Z,28.00
2017-10-28T11:39:15.230Z,28.00
2017-10-28T11:41:45.699Z,28.00
2017-10-28T11:44:16.158Z,27.90
2017-10-28T11:46:46.665Z,27.90
2017-10-28T11:49:17.125Z,27.90
2017-10-28T11:51:47.659Z,27.90
2017-10-28T11:54:18.105Z,27.80
2017-10-28T11:56:48.523Z,27.80
2017-10-28T11:59:19.042Z,27.70
2017-10-28T12:01:49.532Z,27.70
2017-10-28T12:04:20.000Z,27.60
2017-10-28T12:06:50.455Z,27.60
2017-10-28T12:09:22.190Z,27.50
2017-10-28T12:11:52.645Z,27.50
2017-10-28T12:14:24.068Z,27.40
2017-10-28T12:16:54.523Z,27.40
2017-10-28T12:19:25.742Z,27.40
2017-10-28T12:21:56.149Z,27.40
2017-10-28T12:24:26.619Z,27.40
2017-10-28T12:26:58.182Z,27.40
2017-10-28T12:29:29.356Z,27.40
2017-10-28T12:31:59.803Z,27.40
2017-10-28T12:34:30.376Z,27.40
2017-10-28T12:37:01.536Z,27.40
2017-10-28T12:39:32.216Z,27.30
2017-10-28T12:42:02.641Z,27.40
2017-10-28T12:44:33.647Z,27.40
2017-10-28T12:47:04.108Z,27.40
2017-10-28T12:49:34.588Z,27.40
2017-10-28T12:52:05.109Z,27.40
2017-10-28T12:54:36.274Z,27.40
2017-10-28T12:57:07.124Z,27.40
2017-10-28T12:59:37.692Z,27.40
2017-10-28T13:02:08.210Z,27.40
2017-10-28T13:04:38.653Z,27.40
2017-10-28T13:07:09.099Z,27.60
2017-10-28T13:09:40.723Z,27.40
2017-10-28T13:12:11.179Z,27.40
2017-10-28T13:14:42.832Z,27.40
2017-10-28T13:17:14.027Z,27.40
2017-10-28T13:19:44.480Z,27.40
2017-10-28T13:22:14.928Z,27.30
2017-10-28T13:24:46.161Z,27.30
2017-10-28T13:27:16.945Z,27.30
2017-10-28T13:29:47.317Z,27.30
2017-10-28T13:32:17.838Z,27.30
2017-10-28T13:34:48.281Z,27.30
2017-10-28T13:37:19.841Z,27.30
2017-10-28T13:39:51.505Z,27.20
2017-10-28T13:42:22.720Z,27.20
2017-10-28T13:44:53.423Z,27.20
2017-10-28T13:47:23.903Z,27.20
2017-10-28T13:49:55.145Z,27.20
2017-10-28T13:52:26.433Z,27.20
2017-10-28T13:54:56.870Z,27.20
2017-10-28T13:57:27.737Z,27.20
2017-10-28T13:59:58.267Z,27.20
2017-10-28T14:02:28.780Z,27.20
2017-10-28T14:04:59.245Z,27.20
2017-10-28T14:07:30.465Z,27.20
2017-10-28T14:10:01.048Z,27.30
2017-10-28T14:12:31.479Z,27.30
2017-10-28T14:15:02.443Z,27.30
2017-10-28T14:17:32.945Z,27.30
2017-10-28T14:20:03.381Z,27.30
2017-10-28T14:22:33.795Z,27.30
2017-10-28T14:25:04.240Z,27.30
2017-10-28T14:27:34.842Z,27.30
2017-10-28T14:30:06.090Z,27.20
2017-10-28T14:32:36.537Z,27.20
2017-10-28T14:35:07.004Z,27.20
2017-10-28T14:37:37.489Z,27.30
2017-10-28T14:40:07.932Z,27.30
2017-10-28T14:42:38.417Z,27.30
2017-10-28T14:45:09.209Z,27.20
2017-10-28T14:47:39.679Z,27.20
2017-10-28T14:50:10.290Z,27.30
2017-10-28T14:52:41.592Z,27.30
2017-10-28T14:55:12.238Z,27.30
2017-10-28T14:57:43.195Z,27.20
2017-10-28T15:00:13.649Z,27.30
2017-10-28T15:02:45.451Z,26.90
2017-10-28T15:05:16.174Z,27.20
2017-10-28T15:07:46.702Z,27.20
2017-10-28T15:10:17.196Z,27.20
2017-10-28T15:12:48.362Z,27.20
2017-10-28T15:15:19.903Z,27.20
2017-10-28T15:17:51.124Z,27.20
2017-10-28T15:20:21.630Z,27.20
2017-10-28T15:22:52.171Z,27.20
2017-10-28T15:25:22.744Z,27.20
2017-10-28T15:27:53.711Z,27.20
2017-10-28T15:30:24.631Z,27.20
2017-10-28T15:32:55.554Z,27.20
2017-10-28T15:35:26.159Z,27.20
2017-10-28T15:37:56.733Z,27.20
2017-10-28T15:40:27.233Z,27.20
2017-10-28T15:42:58.480Z,27.10
2017-10-28T15:45:30.233Z,27.20
2017-10-28T15:48:01.460Z,27.20
2017-10-28T15:50:31.965Z,27.10
2017-10-28T15:53:02.419Z,27.20
2017-10-28T15:55:32.901Z,27.10
2017-10-28T15:58:03.647Z,27.10
2017-10-28T16:00:34.187Z,27.10
2017-10-28T16:03:04.863Z,27.10
2017-10-28T16:05:36.052Z,27.10
2017-10-28T16:08:06.499Z,27.00
2017-10-28T16:10:36.945Z,27.10
2017-10-28T16:13:07.369Z,27.10
2017-10-28T16:15:38.203Z,27.10
2017-10-28T16:18:08.659Z,27.00
2017-10-28T16:20:39.112Z,27.00
2017-10-28T16:23:09.612Z,27.00
2017-10-28T16:25:40.897Z,27.00
2017-10-28T16:28:12.497Z,26.90
2017-10-28T16:30:43.730Z,26.90
2017-10-28T16:33:14.545Z,26.90
2017-10-28T16:35:45.135Z,26.90
2017-10-28T16:38:15.585Z,26.90
2017-10-28T16:40:46.062Z,26.90
2017-10-28T16:43:17.292Z,27.00
2017-10-28T16:45:48.283Z,26.90
2017-10-28T16:48:18.723Z,26.90
2017-10-28T16:50:49.186Z,26.90
2017-10-28T16:53:19.636Z,26.90
2017-10-28T16:55:50.873Z,26.90
2017-10-28T16:58:22.097Z,26.90
2017-10-28T17:00:52.583Z,26.90
2017-10-28T17:03:23.455Z,26.90
2017-10-28T17:05:53.854Z,26.90
2017-10-28T17:08:24.398Z,26.90
2017-10-28T17:10:54.880Z,26.90
2017-10-28T17:13:25.404Z,26.90
2017-10-28T17:15:57.105Z,26.90
2017-10-28T17:18:27.593Z,26.90
2017-10-28T17:20:58.403Z,26.90
2017-10-28T17:23:28.881Z,26.90
2017-10-28T17:25:59.346Z,26.90
2017-10-28T17:28:29.848Z,26.90
2017-10-28T17:31:00.296Z,26.90
2017-10-28T17:33:31.116Z,26.90
2017-10-28T17:36:01.605Z,26.90
2017-10-28T17:38:32.878Z,26.80
2017-10-28T17:41:03.430Z,26.80
2017-10-28T17:43:33.854Z,26.80
2017-10-28T17:46:04.520Z,26.80
2017-10-28T17:48:35.788Z,26.80
2017-10-28T17:51:07.414Z,26.80
2017-10-28T17:53:37.874Z,26.80
2017-10-28T17:56:09.074Z,26.80
2017-10-28T17:58:39.633Z,26.80
2017-10-28T18:01:10.788Z,26.80
2017-10-28T18:03:41.710Z,26.80
2017-10-28T18:06:12.959Z,26.80
2017-10-28T18:08:44.185Z,26.90
2017-10-28T18:11:14.673Z,26.90
2017-10-28T18:13:45.114Z,26.90
2017-10-28T18:16:16.099Z,26.90
2017-10-28T18:18:47.325Z,26.80
2017-10-28T18:21:18.155Z,26.80
2017-10-28T18:23:48.580Z,26.80
2017-10-28T18:26:19.052Z,26.80
2017-10-28T18:28:49.589Z,26.80
2017-10-28T18:31:20.193Z,26.80
2017-10-28T18:33:51.948Z,26.80
2017-10-28T18:36:23.156Z,26.80
2017-10-28T18:38:53.654Z,26.70
2017-10-28T18:41:24.477Z,26.70
2017-10-28T18:43:55.661Z,26.70
2017-10-28T18:46:26.103Z,26.60
2017-10-28T18:48:56.484Z,26.60
2017-10-28T18:51:27.264Z,26.60
2017-10-28T18:53:57.715Z,26.60
2017-10-28T18:56:28.904Z,26.50
2017-10-28T18:58:59.393Z,26.50
2017-10-28T19:01:30.745Z,26.40
2017-10-28T19:04:02.474Z,26.40
2017-10-28T19:06:32.955Z,26.40
2017-10-28T19:09:03.404Z,26.40
2017-10-28T19:11:33.792Z,26.40
2017-10-28T19:14:05.026Z,26.40
2017-10-28T19:16:36.330Z,26.40
2017-10-28T19:19:06.837Z,26.50
2017-10-28T19:21:37.919Z,26.50
2017-10-28T19:24:09.236Z,26.60
2017-10-28T19:26:39.689Z,26.50
2017-10-28T19:29:10.066Z,26.60
2017-10-28T19:31:40.543Z,26.60
2017-10-28T19:34:11.377Z,26.60
2017-10-28T19:36:41.813Z,26.60
2017-10-28T19:39:12.641Z,26.60
2017-10-28T19:41:43.098Z,26.60
2017-10-28T19:44:14.322Z,26.50
2017-10-28T19:46:44.679Z,26.50
2017-10-28T19:49:15.119Z,26.50
2017-10-28T19:51:46.027Z,26.40
2017-10-28T19:54:17.245Z,26.40
2017-10-28T19:56:47.981Z,26.40
2017-10-28T19:59:18.432Z,26.40
2017-10-28T20:01:49.644Z,26.40
2017-10-28T20:04:20.476Z,26.40
2017-10-28T20:06:50.934Z,26.40
2017-10-28T20:09:21.960Z,26.40
2017-10-28T20:11:53.218Z,26.50
2017-10-28T20:14:23.599Z,26.50
2017-10-28T20:16:54.100Z,26.50
2017-10-28T20:19:24.514Z,26.50
2017-10-28T20:21:56.254Z,26.60
2017-10-28T20:24:26.769Z,26.60
2017-10-28T20:26:57.281Z,26.60
2017-10-28T20:29:27.679Z,26.60
2017-10-28T20:31:58.097Z,26.60
2017-10-28T20:34:28.917Z,26.60
2017-10-28T20:37:00.120Z,26.50
2017-10-28T20:39:31.109Z,26.50
2017-10-28T20:42:02.305Z,26.40
2017-10-28T20:44:32.750Z,26.40
2017-10-28T20:47:03.197Z,26.40
2017-10-28T20:49:34.435Z,26.20
2017-10-28T20:52:06.073Z,26.20
2017-10-28T20:54:36.511Z,26.20
2017-10-28T20:57:07.009Z,26.20
2017-10-28T20:59:37.438Z,26.20
2017-10-28T21:02:07.877Z,26.20
2017-10-28T21:04:38.482Z,26.20
2017-10-28T21:07:08.949Z,26.20
2017-10-28T21:09:40.821Z,26.20
2017-10-28T21:12:12.093Z,26.20
2017-10-28T21:14:42.577Z,26.20
2017-10-28T21:17:13.113Z,26.20
2017-10-28T21:19:43.561Z,26.20
2017-10-28T21:22:15.151Z,26.10
2017-10-28T21:24:45.594Z,26.10
2017-10-28T21:27:16.809Z,26.10
2017-10-28T21:29:47.232Z,26.10
2017-10-28T21:32:17.656Z,26.00
2017-10-28T21:34:48.404Z,26.10
2017-10-28T21:37:18.863Z,26.00
2017-10-28T21:39:49.563Z,26.00
2017-10-28T21:44:55.857Z,26.00
2017-10-28T21:47:26.420Z,26.00
2017-10-28T21:49:57.019Z,25.90
2017-10-28T21:52:27.774Z,25.90
2017-10-28T21:54:59.005Z,25.90
2017-10-28T21:57:29.542Z,25.90
2017-10-28T21:59:59.963Z,25.90
2017-10-28T22:02:30.426Z,25.90
2017-10-28T22:05:01.720Z,25.90
2017-10-28T22:07:32.259Z,25.90
2017-10-28T22:10:03.014Z,25.90
2017-10-28T22:12:34.596Z,25.90
2017-10-28T22:15:05.763Z,26.00
2017-10-28T22:17:36.320Z,25.90
2017-10-28T22:20:07.769Z,25.90
2017-10-28T22:22:39.478Z,25.90
2017-10-28T22:25:10.732Z,25.90
2017-10-28T22:27:41.996Z,25.90
2017-10-28T22:30:14.051Z,25.90
2017-10-28T22:32:44.564Z,25.90
2017-10-28T22:35:16.124Z,25.90
2017-10-28T22:37:46.576Z,25.90
2017-10-28T22:40:17.541Z,25.90
2017-10-28T22:42:48.038Z,25.90
2017-10-28T22:45:18.456Z,25.90
2017-10-28T22:47:48.925Z,25.90
2017-10-28T22:50:19.341Z,25.90
2017-10-28T22:52:50.069Z,25.90
2017-10-28T22:55:20.504Z,25.90
2017-10-28T22:57:52.061Z,25.90
2017-10-28T23:00:22.558Z,25.90
2017-10-28T23:02:53.023Z,25.90
2017-10-28T23:05:23.434Z,25.90
2017-10-28T23:07:53.885Z,25.90
2017-10-28T23:10:24.474Z,25.80
2017-10-28T23:12:54.920Z,25.80
2017-10-28T23:15:25.384Z,25.80
2017-10-28T23:17:55.814Z,25.80
2017-10-28T23:20:27.042Z,25.80
2017-10-28T23:22:57.879Z,25.80
2017-10-28T23:25:28.384Z,25.80
2017-10-28T23:27:59.062Z,25.80
2017-10-28T23:30:30.282Z,25.90
2017-10-28T23:33:00.666Z,25.80
2017-10-28T23:35:31.128Z,25.90
2017-10-28T23:38:01.567Z,25.90
2017-10-28T23:40:32.416Z,25.90
2017-10-28T23:43:03.674Z,26.00
2017-10-28T23:45:34.841Z,26.10
2017-10-28T23:48:05.285Z,26.10
2017-10-28T23:50:35.750Z,26.20
2017-10-28T23:53:06.566Z,26.20
2017-10-28T23:55:36.992Z,26.30
2017-10-28T23:58:08.694Z,26.40
